Tiempo atmosférico en la estación meteorológica de Soria, Soria (1082 m.)



Fecha
DESCASC
Temp. máxima en grados centígrados (hora)
DESCASC
Temp. mínima en grados centígrados (hora)
DESCASC
Temp. media en grados centígrados
DESCASC
Racha de viento máxima en m/sg (hora)
DESCASC
Velocidad máxima media en intervalos de 10 minutos(hora)
DESCASC
Precipitaciones diarias en mm
DESCASC
Precipitaciones de 00:00 a 06:00 en mm
DESCASC
Precipitaciones de 06:00 a 12:00 en mm
DESCASC
Precipitaciones de 12:00 a 18:00 en mm
DESCASC
Precipitaciones de 18:00 a 24:00 en mm
DESCASC
25-04-2019 9.8 (16:40) 3 (07:00) 6.4 13.33 (06:10) 7.22 (14:20) 6.4 4 0.6 0.4 1.4
24-04-2019 11 (16:50) 1.5 (11:00) 6.3 15.28 (14:10) 7.78 (14:20) 17.8 0 2 1.6 14.2
23-04-2019 9.9 (10:40) 3.6 (23:20) 6.7 10.83 (14:20) 6.11 (14:20) 1.2 0 0.2 0.8 0.2
22-04-2019 14.2 (17:10) 4.6 (00:00) 9.4 6.94 (11:20) 3.33 (11:20) 0.2 0.2 0 0 0
21-04-2019 8.9 (17:20) 5.7 (00:00) 7.3 8.33 (14:20) 4.17 (14:00) 0.2 0 0 0 0.2
20-04-2019 17.8 (13:50) 7.3 (00:00) 12.5 9.17 (14:00) 5 (13:10) 0 0 0 0 0
19-04-2019 12.2 (18:10) 6.8 (00:00) 9.5 11.67 (13:00) 6.67 (18:00) 12.4 6 6.4 0 0
18-04-2019 13 (00:00) 7.4 (00:00) 10.2 8.61 (13:10) 5 (13:20) 32.4 0.4 17 4.6 10.4
17-04-2019 20.1 (16:10) 7.7 (00:00) 13.9 9.44 (15:10) 5 (15:00) 0 0 0 0 0
16-04-2019 17.8 (17:10) 6.2 (00:00) 12 10.28 (23:20) 3.61 (15:00) 0 0 0 0 0
15-04-2019 20.5 (15:30) 7 (00:00) 13.8 13.33 (19:20) 6.67 (15:50) 0 0 0 0 0
14-04-2019 19.8 (17:10) 6.6 (00:00) 13.2 10 (16:30) 5.83 (14:40) 0 0 0 0 0
13-04-2019 19.3 (16:30) 0.6 (00:00) 9.9 8.33 (15:10) 4.72 (19:20) 0 0 0 0 0
12-04-2019 15.1 (15:30) 2.5 (00:00) 8.8 7.78 (19:40) 4.44 (16:30) 0 0 0 0 0
11-04-2019 11.7 (15:20) 1.6 (00:00) 6.6 10.83 (15:00) 5.28 (13:30) 0 0 0 0 0
10-04-2019 10.7 (16:00) 1.9 (00:00) 6.3 9.44 (17:50) 5.28 (17:50) 1 1 0 0 0
09-04-2019 9 (12:10) 3.2 (00:00) 6.1 11.39 (12:20) 6.39 (16:10) 4 0 0 0.4 3.6
08-04-2019 13.8 (17:30) 3.7 (00:00) 8.8 12.22 (15:20) 7.5 (14:20) 2.8 1.4 1.4 0 0
07-04-2019 9.7 (16:50) 1.2 (00:00) 5.4 11.67 (10:20) 6.11 (15:10) 0 0 0 0 0
06-04-2019 5.3 (14:40) 0.5 (00:00) 2.9 11.94 (18:00) 6.39 (11:10) 8 0.6 0.2 4.8 2.4
05-04-2019 6.7 (16:30) 1.2 (00:00) 3.9 9.72 (05:50) 5.56 (05:50) 2.6 0 0.4 1.2 1
04-04-2019 -- (--) -- (--) -- -- (--) -- (--) -- 0 0 -- 0
03-04-2019 11.2 (16:40) -0.2 (23:50) 5.5 10.56 (15:40) 5.56 (15:40) 0.4 0 0 0 0.4
02-04-2019 12.8 (13:10) 2.6 (00:00) 7.7 6.94 (16:30) 3.61 (14:10) 9.4 0 0 7.4 2
01-04-2019 13 (15:10) 4.1 (00:00) 8.5 5.56 (17:00) 3.33 (17:10) -- 0 -- 2.4 0
31-03-2019 13.9 (12:30) 1.1 (00:00) 7.5 7.78 (15:10) 4.17 (16:10) 2 0 0 0.2 1.8
30-03-2019 16.5 (15:10) -0.6 (-00:0) 7.9 8.61 (17:30) 3.89 (14:10) 0 0 0 0 0
29-03-2019 17.1 (15:50) -0.4 (00:00) 8.4 8.33 (13:50) 3.89 (14:00) 0 0 0 0 0
28-03-2019 17.9 (16:10) 1.4 (00:00) 9.6 6.67 (19:10) 3.89 (02:00) 0 0 0 0 0
27-03-2019 16.3 (15:20) 2.1 (00:00) 9.2 10.83 (12:10) 5.83 (17:10) 0 0 0 0 0

Gráficas

Temp. máximas Temp. mínimas Temp. medias Precipitaciones Rachas de viento máximas Velocidades máximas media en intervalos de 10 minutos

Datos horarios

Fecha y hora oficial Temperatura (ºC) Velocidad del viento (km/h) Dirección del viento Racha (km/h) Dirección de racha Precipitación (mm) Presión (hPa) Tendencia (hPa) Humedad (%)
2019-04-25 23:00:00 4.7 21 Oeste 35 Oeste 0.4 891.2 2.9 87
2019-04-25 22:00:00 4.9 11 Oeste 37 Oeste 0 890 1.9 84
2019-04-25 21:00:00 5.6 11 Sudoeste 41 Oeste 0 888.9 1.2 83
2019-04-25 20:00:00 6.5 17 Oeste 41 Oeste 1 888.3 0.9 80
2019-04-25 19:00:00 8.8 17 Oeste 39 Oeste 0 888.1 0.5 65
2019-04-25 18:00:00 8.4 11 Oeste 31 Oeste 0.2 887.7 0.3 73
2019-04-25 17:00:00 9 15 Sudoeste 35 Sudoeste 0.2 887.4 0.4 67
2019-04-25 16:00:00 7.7 17 Oeste 40 Oeste 0 887.6 0.7 64
2019-04-25 15:00:00 7.9 19 Oeste 44 Oeste 0 887.4 0.5 69
2019-04-25 14:00:00 8.1 25 Oeste 42 Oeste 0 887 0.8 69
2019-04-25 13:00:00 7.1 18 Oeste 36 Oeste 0 886.9 1 74
2019-04-25 12:00:00 5.8 20 Oeste 39 Sudoeste 0.2 886.9 2.1 81
2019-04-25 11:00:00 6 15 Oeste 27 Oeste 0 886.2 2 82
2019-04-25 10:00:00 4 13 Oeste 34 Sudoeste 0.2 885.9 2.2 92
2019-04-25 09:00:00 4 14 Sudoeste 29 Sudoeste 0 884.8 2.2 91
2019-04-25 08:00:00 3.3 7 Oeste 27 Oeste 0 884.2 2.2 94
2019-04-25 07:00:00 3 15 Oeste 48 Noroeste 0.2 883.7 2 92
2019-04-25 06:00:00 4.4 19 Oeste 40 Oeste 0 882.6 0.8 88
2019-04-25 05:00:00 5.1 17 Oeste 44 Oeste 0.2 882 1.1 89
2019-04-25 04:00:00 5.6 19 Oeste 36 Oeste 0.2 881.7 1.4 92
2019-04-25 03:00:00 5.5 20 Oeste 39 Oeste 2.2 881.8 0.5 93
2019-04-25 02:00:00 7.8 18 Sudoeste 46 Sudoeste 1.2 880.9 -0.8 94
2019-04-25 01:00:00 7.2 18 Sur 36 Sudoeste 0.2 880.3 -1.3 94
2019-04-25 00:00:00 6.9 11 Sur 24 Sudoeste 0.6 881.3 0.3 96
2019-04-24 23:00:00 7.1 10 Sudoeste 23 Sudoeste 0.4 881.7 2.3 94
2019-04-24 22:00:00 6.6 12 Sudoeste 41 Oeste 1.8 881.6 2.6 94
2019-04-24 21:00:00 6.8 28 Oeste 49 Oeste 6 881 1.1 88
2019-04-24 20:00:00 8.3 21 Sur 38 Sur 3.4 879.4 -0.2 93
2019-04-24 19:00:00 9 22 Sur 45 Sur 2 879 -1 91
2019-04-24 18:00:00 9.3 20 Sudoeste 49 Sudoeste 0.8 879.9 -0.5 88
2019-04-24 17:00:00 10.8 25 Sudoeste 46 Sur 0 879.6 -0.6 75
2019-04-24 16:00:00 9.6 26 Sudoeste 44 Sudoeste 0 880 -0.6 75
2019-04-24 15:00:00 7.5 26 Sudoeste 55 Sudoeste 0 880.4 -0.2 85
2019-04-24 14:00:00 7 24 Sudoeste 44 Sudoeste 0.2 880.2 -0.4 83
2019-04-24 13:00:00 4.5 23 Sudoeste 41 Sudoeste 0.6 880.6 0.1 91
2019-04-24 12:00:00 3.3 26 Sur 41 Sudoeste 0.2 880.6 0.5 91
2019-04-24 11:00:00 1.6 14 Sur 37 Sur 1.8 880.6 0.6 96
2019-04-24 10:00:00 3.3 16 Sur 36 Sudoeste 0 880.5 0.9 89
2019-04-24 09:00:00 3 18 Sudoeste 34 Sur 0 880.1 0.8 85
2019-04-24 08:00:00 2.6 13 Sudoeste 23 Sudoeste 0 880 0.7 92
2019-04-24 07:00:00 2.2 12 Sudoeste 21 Sudoeste 0 879.6 0.3 91
2019-04-24 06:00:00 2.6 10 Oeste 24 Oeste 0 879.3 -0.1 88
2019-04-24 05:00:00 3 14 Oeste 28 Oeste 0 879.3 0.1 89
2019-04-24 04:00:00 3.3 14 Oeste 29 Oeste 0 879.3 0.5 88
2019-04-24 03:00:00 3.4 15 Oeste 30 Oeste 0 879.4 1 90
2019-04-24 02:00:00 3.8 13 Oeste 27 Sudoeste 0 879.2 1.1 89
2019-04-24 01:00:00 3.8 13 Oeste 25 Oeste 0 878.8 1.2 92
2019-04-24 00:00:00 3.7 12 Oeste 27 Oeste 0 878.4 1.6 91
2019-04-23 23:00:00 3.9 12 Oeste 23 Sudoeste 0 878.1 2.5 91
2019-04-23 22:00:00 4 12 Oeste 32 Oeste 0.2 877.6 2.8 88
2019-04-23 21:00:00 5.2 15 Oeste 37 Sudoeste 0 876.8 1.5 78
2019-04-23 20:00:00 7.6 19 Oeste 33 Oeste 0 875.6 0.8 69
2019-04-23 19:00:00 9.3 14 Oeste 27 Oeste 0 874.8 -0.2 68
2019-04-23 18:00:00 6.8 15 Oeste 36 Oeste 0.2 875.3 0.1 85
2019-04-23 17:00:00 8.6 19 Sudoeste 33 Sur 0 874.8 -0.6 73
2019-04-23 16:00:00 9.3 12 Sudoeste 26 Sur 0 875 -0.4 76
2019-04-23 15:00:00 9.1 12 Sur 39 Sur 0 875.2 -0.2 76
2019-04-23 14:00:00 9.1 17 Sur 28 Sudoeste 0 875.4 0.3 82
2019-04-23 13:00:00 8 13 Sudoeste 31 Sur 0.6 875.4 0.4 91
2019-04-23 12:00:00 8.5 11 Sur 24 Sudoeste 0.2 875.4 0.5 91
2019-04-23 11:00:00 9.7 15 Sur 32 Sur 0 875.1 0.3 74
2019-04-23 10:00:00 9.6 13 Sur 24 Sur 0 875 0.1 78
2019-04-23 09:00:00 8.1 8 Sur 13 Sur 0 874.9 -0.2 88
2019-04-23 08:00:00 7.3 3 Sudeste 9 Sur 0 874.8 -0.5 90
2019-04-23 07:00:00 7 6 Sudeste 9 Sudeste 0 874.9 -0.8 90
2019-04-23 06:00:00 7.3 0 Calma 7 Sur 0 875.1 -1.4 88
2019-04-23 05:00:00 7.7 3 Sur 6 Sudoeste 0 875.3 -1.7 87
2019-04-23 04:00:00 8.2 3 Sudoeste 10 Sudeste 0 875.7 -1.7 86
2019-04-23 03:00:00 8.2 2 Sur 5 Sudeste 0 876.5 -1.3 87
2019-04-23 02:00:00 8.8 3 Sur 10 Sur 0 877 -1 84
2019-04-23 01:00:00 9.2 4 Sudeste 11 Sudeste 0 877.4 -0.7 82
2019-04-23 00:00:00 9.5 6 Sur 13 Sur 0 877.8 -0.1 79
2019-04-22 23:00:00 9.8 5 Sudoeste 14 Sudoeste 0 878 0.2 80
2019-04-22 22:00:00 10.8 9 Oeste 20 Oeste 0 878.1 0 72
2019-04-22 21:00:00 12.1 7 Sudoeste 15 Oeste 0 877.9 -0.3 64
2019-04-22 20:00:00 13.1 8 Sudoeste 17 Sudoeste 0 877.8 -0.7 59
2019-04-22 19:00:00 13.6 8 Sudoeste 14 Sur 0 878.1 -1.3 56
2019-04-22 18:00:00 13.2 8 Sudoeste 19 Sudeste 0 878.2 -1.8 54
2019-04-22 17:00:00 13.8 10 Sur 19 Sur 0 878.5 -2.1 55
2019-04-22 16:00:00 13.4 9 Sur 18 Sudeste 0 879.4 -1.6 56
2019-04-22 15:00:00 12.6 10 Sudeste 19 Sur 0 880 -1.6 59
2019-04-22 14:00:00 12.8 9 Sur 19 Este 0 880.6 -1.2 59
2019-04-22 13:00:00 12.3 8 Sudeste 17 Sudeste 0 881 -1 59
2019-04-22 12:00:00 12.4 10 Sur 25 Sudeste 0 881.6 -0.8 56
2019-04-22 11:00:00 11.9 6 Sudeste 12 Sudeste 0 881.8 -0.7 59
2019-04-22 10:00:00 9.9 3 Norte 6 Norte 0 882 -0.4 72
2019-04-22 09:00:00 6.5 3 Noroeste 10 Noroeste 0 882.4 -0.4 93
2019-04-22 08:00:00 4.6 0 Calma 7 Noroeste 0 882.5 -1.3 91
2019-04-22 07:00:00 5.3 3 Norte 4 Norte 0 882.4 -2 89
2019-04-22 06:00:00 6.1 2 Norte 8 Noroeste 0 882.8 -2.4 87
2019-04-22 05:00:00 6.2 2 Norte 4 Noroeste 0 883.8 -2.6 89
2019-04-22 04:00:00 6.2 0 Calma 6 Nordeste 0 884.4 -2.8 90
2019-04-22 03:00:00 6.2 4 Norte 13 Norte 0 885.2 -2.4 91
2019-04-22 02:00:00 6.4 6 Norte 11 Nordeste 0 886.4 -1.6 90
2019-04-22 01:00:00 6.6 3 Nordeste 6 Nordeste 0.2 887.2 -0.6 91
2019-04-22 00:00:00 6.8 3 Nordeste 11 Este 0.2 887.6 -0.1 89
2019-04-21 23:00:00 7 6 Nordeste 15 Este 0 888 0.2 87
2019-04-21 22:00:00 7.6 8 Este 15 Este 0 887.8 -0.3 79
2019-04-21 21:00:00 8 6 Nordeste 14 Nordeste 0 887.7 -0.8 71
2019-04-21 20:00:00 8.2 9 Nordeste 19 Este 0 887.8 -1.1 69
2019-04-21 19:00:00 8.5 10 Este 21 Nordeste 0 888.1 -1.5 69
2019-04-21 18:00:00 8.8 9 Este 22 Nordeste 0 888.5 -1.5 67
2019-04-21 17:00:00 8.5 13 Nordeste 23 Nordeste 0 888.9 -1.4 73
2019-04-21 16:00:00 8.3 7 Nordeste 20 Este 0 889.6 -1.2 74
2019-04-21 15:00:00 8 12 Este 30 Nordeste 0 890 -1 75
2019-04-21 14:00:00 8.5 15 Nordeste 24 Este 0 890.3 -1.1 71
2019-04-21 13:00:00 8.3 10 Nordeste 24 Este 0 890.8 -0.7 80
2019-04-21 12:00:00 8 13 Este 25 Este 0 891 -0.9 70
2019-04-21 11:00:00 6.8 8 Nordeste 17 Nordeste 0 891.4 -0.7 79
2019-04-21 10:00:00 6.3 10 Nordeste 19 Nordeste 0 891.5 -0.7 84
2019-04-21 09:00:00 5.9 11 Nordeste 18 Nordeste 0 891.9 -0.7 89
2019-04-21 08:00:00 5.7 6 Este 15 Nordeste 0 892.1 -0.9 89
2019-04-21 07:00:00 6 7 Este 14 Este 0 892.2 -1.4 86
2019-04-21 06:00:00 5.8 8 Este 17 Este 0 892.6 -1.9 84
2019-04-21 05:00:00 6.1 10 Sudeste 23 Sudeste 0 893 -2.2 83
2019-04-21 04:00:00 6.6 5 Sudeste 16 Sur 0 893.6 -2.4 85
2019-04-21 03:00:00 6.9 5 Sudeste 13 Sudeste 0 894.5 -1.6 80
2019-04-21 02:00:00 7.1 6 Sudeste 15 Sudeste 0 895.2 -0.6 80
2019-04-21 01:00:00 7.7 7 Sudeste 19 Sudeste 0 896 0.6 76
2019-04-21 00:00:00 8 7 Sudeste 21 Sudeste 0 896.1 1.1 73
2019-04-20 23:00:00 8.4 12 Sudeste 28 Sudeste 0 895.8 1.1 70
2019-04-20 22:00:00 10.8 14 Sudeste 31 Sudeste 0 895.4 0.5 54
2019-04-20 21:00:00 12.6 7 Este 17 Este 0 895 0.1 46
2019-04-20 20:00:00 14.7 12 Este 26 Este 0 894.7 -0.6 38
2019-04-20 19:00:00 16.1 13 Este 32 Nordeste 0 894.9 -1 32
2019-04-20 18:00:00 17.4 14 Este 32 Nordeste 0 894.9 -1.3 35
2019-04-20 17:00:00 17 12 Este 30 Este 0 895.3 -1.3 38
2019-04-20 16:00:00 15.6 14 Este 33 Este 0 895.9 -1.1 44
2019-04-20 15:00:00 16.3 13 Este 29 Este 0 896.2 -1.4 43
2019-04-20 14:00:00 17.2 17 Este 33 Nordeste 0 896.6 -1 41
2019-04-20 13:00:00 16.9 13 Este 28 Este 0 897 -0.7 39
2019-04-20 12:00:00 15.3 14 Este 29 Sudeste 0 897.6 -0.3 41
2019-04-20 11:00:00 14.7 14 Este 29 Este 0 897.6 -0.1 38
2019-04-20 10:00:00 11.5 13 Nordeste 27 Nordeste 0 897.7 0.3 55
2019-04-20 09:00:00 9.2 9 Este 20 Nordeste 0 897.9 0.1 59
2019-04-20 08:00:00 8.2 7 Nordeste 22 Este 0 897.7 -0.7 65
2019-04-20 07:00:00 7.4 4 Noroeste 12 Norte 0 897.4 -1.5 68
2019-04-20 06:00:00 7.9 9 Nordeste 17 Nordeste 0 897.8 -1.3 68
2019-04-20 05:00:00 7.7 9 Nordeste 13 Nordeste 0 898.4 -0.8 73
2019-04-20 04:00:00 7.9 5 Este 10 Nordeste 0 898.9 -0.1 76
2019-04-20 03:00:00 7.9 3 Este 15 Nordeste 0 899.1 -0.1 77
2019-04-20 02:00:00 7.9 2 Noroeste 10 Sudeste 0 899.2 0 80
2019-04-20 01:00:00 8.7 4 Este 16 Este 0 899 0.4 74
2019-04-20 00:00:00 9.6 10 Este 24 Nordeste 0 899.2 1.5 75
2019-04-19 23:00:00 10.1 9 Este 33 Este 0 899.2 2.2 73
2019-04-19 22:00:00 10.4 12 Este 33 Este 0 898.6 2 72
2019-04-19 21:00:00 10.4 14 Este 31 Este 0 897.7 1.7 76
2019-04-19 20:00:00 11.1 17 Este 32 Este 0 897 1.1 73
2019-04-19 19:00:00 11.8 21 Este 40 Este 0 896.6 0.5 69
2019-04-19 18:00:00 12.1 24 Este 35 Este 0 896 -0.1 67
2019-04-19 17:00:00 12.1 18 Este 38 Este 0 895.9 0.2 69
2019-04-19 16:00:00 11.6 19 Este 33 Este 0 896.1 0.4 72
2019-04-19 15:00:00 10.6 16 Este 32 Este 0 896.1 0.7 78
2019-04-19 14:00:00 10.3 17 Este 33 Este 0 895.7 0.7 79
2019-04-19 13:00:00 8.7 18 Este 42 Este 0 895.7 1.2 87
2019-04-19 12:00:00 7.9 16 Este 36 Este 0.2 895.4 1.3 92
2019-04-19 11:00:00 7.3 14 Este 31 Este 1.2 895 1.4 96
2019-04-19 10:00:00 7.4 12 Este 26 Este 1 894.5 1.6 97
2019-04-19 09:00:00 7.3 10 Este 27 Sudeste 1 894.1 1.7 95
2019-04-19 08:00:00 7 12 Este 26 Este 1.2 893.6 1.4 96
2019-04-19 07:00:00 6.9 12 Este 33 Sudeste 1.8 892.9 0.9 94
2019-04-19 06:00:00 7.2 15 Este 30 Este 2.2 892.4 0.3 95
2019-04-19 05:00:00 7.3 13 Este 32 Este 1.2 892.2 0.1 96
2019-04-19 04:00:00 6.9 6 Este 18 Este 1.2 892 0.3 96
2019-04-19 03:00:00 6.9 12 Este 24 Este 0 892.1 0.5 94
2019-04-19 02:00:00 7.1 12 Este 24 Sudeste 1.2 892.1 0.7 95
2019-04-19 01:00:00 7.1 10 Este 26 Este 0.2 891.7 0.7 94
2019-04-19 00:00:00 7.4 13 Este 28 Sudeste 0.4 891.6 1.5 93
2019-04-18 23:00:00 7.6 15 Este 28 Este 1.2 891.4 1.2 92
2019-04-18 22:00:00 8 9 Este 18 Este 2.6 891 0.6 93
2019-04-18 21:00:00 7.9 3 Norte 12 Norte 1 890.1 -0.2 95
2019-04-18 20:00:00 8.1 5 Norte 11 Norte 2.8 890.2 0 95
2019-04-18 19:00:00 8.3 4 Norte 8 Norte 2.4 890.4 0.1 94
2019-04-18 18:00:00 8.6 0 Calma 14 Sudeste 3.4 890.3 0 89
2019-04-18 17:00:00 9.1 6 Sudeste 20 Sudeste 1.2 890.2 -0.4 85
2019-04-18 16:00:00 9.4 11 Sudeste 26 Sudeste 0 890.3 -0.7 78
2019-04-18 15:00:00 9.9 10 Este 29 Sudeste 0 890.3 -1 75
2019-04-18 14:00:00 10.1 10 Este 31 Este 0 890.6 -1.1 81
2019-04-18 13:00:00 11.2 12 Nordeste 23 Este 0 891 -1.2 83
2019-04-18 12:00:00 8.6 8 Nordeste 17 Este 1.2 891.3 -0.4 93
2019-04-18 11:00:00 8.2 9 Este 23 Sudeste 3.4 891.7 0.5 95
2019-04-18 10:00:00 8.4 13 Sur 30 Sur 4.2 892.2 1.1 93
2019-04-18 09:00:00 8.8 10 Sur 24 Sur 5 891.7 0.7 92
2019-04-18 08:00:00 9.5 5 Sudeste 13 Sudeste 2.2 891.2 -0.3 93
2019-04-18 07:00:00 10 7 Sur 15 Sur 1 891.1 -0.5 89
2019-04-18 06:00:00 10.4 8 Sudeste 17 Sur 0.4 891 -0.1 86
2019-04-18 05:00:00 11.4 7 Sur 14 Sur 0 891.5 0 78
2019-04-18 04:00:00 11.6 8 Sur 18 Sur 0 891.6 0.5 74
2019-04-18 03:00:00 11.3 6 Sur 13 Sur 0 891.1 -0.2 76
2019-04-18 02:00:00 11.2 3 Sur 9 Sudoeste 0 891.5 0.3 75
2019-04-18 01:00:00 12.1 3 Noroeste 12 Este 0 891.1 0.6 71
2019-04-18 00:00:00 13 8 Sudeste 21 Sudeste 0 891.3 2.2 66
2019-04-17 23:00:00 13.2 10 Sudeste 19 Sudeste 0 891.2 2.2 66
2019-04-17 22:00:00 13.3 9 Sur 23 Sudeste 0 890.5 1.8 65
2019-04-17 21:00:00 14 9 Este 25 Sudeste 0 889.1 0.8 64
2019-04-17 20:00:00 15.3 9 Este 30 Sudeste 0 889 -0.3 58
2019-04-17 19:00:00 16.6 10 Sudeste 33 Sudeste 0 888.7 -1.2 54
2019-04-17 18:00:00 17.3 14 Sudeste 32 Sudeste 0 888.3 -2.5 52
2019-04-17 17:00:00 18.9 13 Este 27 Sudeste 0 889.3 -1.7 45
2019-04-17 16:00:00 19.8 15 Sur 34 Sudeste 0 889.9 -1.3 41
2019-04-17 15:00:00 18.6 18 Sur 32 Sudeste 0 890.8 -1 43
2019-04-17 14:00:00 17.1 16 Sur 29 Sur 0 891 -1 46
2019-04-17 13:00:00 16.2 11 Sudeste 23 Sudeste 0 891.2 -1.1 55
2019-04-17 12:00:00 12.3 10 Este 18 Sudeste 0 891.8 -0.3 69
2019-04-17 11:00:00 11.4 7 Sudeste 15 Sudeste 0 892 -0.2 72
2019-04-17 10:00:00 9.2 6 Sudeste 13 Este 0 892.3 0.6 82
2019-04-17 09:00:00 8.1 7 Este 13 Este 0 892.1 0 85
2019-04-17 08:00:00 7.7 6 Sudeste 18 Sudeste 0 892.2 -0.1 87
2019-04-17 07:00:00 7.8 8 Sudeste 22 Sudeste 0 891.7 -1.1 87
2019-04-17 06:00:00 8.4 13 Sudeste 24 Sudeste 0 892.1 -1.4 85
2019-04-17 05:00:00 8.9 8 Sudeste 21 Sudeste 0 892.3 -1.5 82
2019-04-17 04:00:00 9.3 8 Sudeste 20 Sudeste 0 892.8 -1 78
2019-04-17 03:00:00 9.6 6 Sudeste 19 Sudeste 0 893.5 -0.4 76
2019-04-17 02:00:00 9.8 7 Sudeste 19 Este 0 893.8 0 69
2019-04-17 01:00:00 10 9 Este 22 Sur 0 893.8 0.1 63
2019-04-17 00:00:00 10.4 8 Sudeste 37 Sudeste 0 893.9 0.6 61
2019-04-16 23:00:00 10.9 10 Sudeste 27 Sudeste 0 893.8 0.5 62
2019-04-16 22:00:00 11.9 9 Este 21 Este 0 893.7 0.2 60
2019-04-16 21:00:00 14 9 Sudeste 24 Sudeste 0 893.3 -0.3 47
2019-04-16 20:00:00 16.1 10 Sudeste 22 Sudeste 0 893.3 -0.8 39
2019-04-16 19:00:00 16.7 9 Sudeste 19 Sudeste 0 893.5 -1.2 37
2019-04-16 18:00:00 17.2 9 Sudeste 23 Sur 0 893.6 -1.6 33
2019-04-16 17:00:00 17.6 12 Sur 24 Sudeste 0 894.1 -1.3 33
2019-04-16 16:00:00 17 6 Sur 20 Sur 0 894.7 -0.9 34
2019-04-16 15:00:00 15.9 13 Sur 26 Sur 0 895.2 -0.9 43
2019-04-16 14:00:00 15.5 7 Sudeste 15 Sur 0 895.4 -0.5 42
2019-04-16 13:00:00 14.2 5 Sudoeste 14 Sudoeste 0 895.6 -0.5 46
2019-04-16 12:00:00 11.5 7 Sudoeste 11 Oeste 0 896.1 0.4 61
2019-04-16 11:00:00 9.9 5 Sudoeste 17 Sudoeste 0 895.9 0.6 75
2019-04-16 10:00:00 7.6 7 Sudoeste 15 Oeste 0 896.1 1.4 85
2019-04-16 09:00:00 7.1 7 Sudoeste 11 Sudoeste 0 895.7 1 88
2019-04-16 08:00:00 6.6 3 Sudoeste 10 Sudoeste 0 895.3 0.7 89
2019-04-16 07:00:00 6.6 5 Sudoeste 9 Sudoeste 0 894.7 0.6 90
2019-04-16 06:00:00 6.4 2 Oeste 8 Oeste 0 894.7 0.4 88
2019-04-16 05:00:00 6.4 0 Calma 9 Oeste 0 894.6 0.9 87
2019-04-16 04:00:00 7.4 4 Oeste 18 Noroeste 0 894.1 0.4 82
2019-04-16 03:00:00 8.4 3 Noroeste 16 Oeste 0 894.3 0.8 78
2019-04-16 02:00:00 8.9 7 Noroeste 16 Noroeste 0 893.7 0.7 74
2019-04-16 01:00:00 9.2 6 Oeste 19 Oeste 0 893.7 1.7 70
2019-04-16 00:00:00 10 11 Oeste 28 Oeste 0 893.5 2.6 68
2019-04-15 23:00:00 10.5 14 Oeste 25 Noroeste 0 893 3.6 69
2019-04-15 22:00:00 11.3 10 Noroeste 30 Oeste 0 892 4.4 72
2019-04-15 21:00:00 12.3 12 Noroeste 33 Norte 0 890.9 2.9 79
2019-04-15 20:00:00 13.9 8 Norte 48 Noroeste 0 889.4 1 68
2019-04-15 19:00:00 18.2 16 Sudoeste 35 Sur 0 887.6 -1.3 50
2019-04-15 18:00:00 17.9 17 Sudoeste 39 Sudoeste 0 888 -1.5 57
2019-04-15 17:00:00 18.6 19 Sudoeste 40 Sudoeste 0 888.4 -1.5 49
2019-04-15 16:00:00 19.9 22 Sudoeste 44 Sudoeste 0 888.9 -1.6 46
2019-04-15 15:00:00 19.5 20 Sudoeste 39 Sur 0 889.5 -1.4 47
2019-04-15 14:00:00 18.7 19 Sur 35 Sudoeste 0 889.9 -1.4 52
2019-04-15 13:00:00 18.2 17 Sur 36 Sur 0 890.5 -1.2 57
2019-04-15 12:00:00 18.2 12 Sur 24 Sur 0 890.9 -1.2 60
2019-04-15 11:00:00 15.1 8 Sur 16 Sur 0 891.3 -0.7 70
2019-04-15 10:00:00 11.1 2 Este 6 Este 0 891.7 0 81
2019-04-15 09:00:00 8.3 0 Calma 5 Este 0 892.1 -0.3 90
2019-04-15 08:00:00 7.4 0 Calma 4 Este 0 892 -0.7 90
2019-04-15 07:00:00 7 4 Este 6 Este 0 891.7 -1.6 88
2019-04-15 06:00:00 7.3 0 Calma 10 Nordeste 0 892.4 -1.3 88
2019-04-15 05:00:00 7.9 3 Nordeste 5 Norte 0 892.7 -1.4 87
2019-04-15 04:00:00 8.4 0 Calma 4 Norte 0 893.3 -1.1 85
2019-04-15 03:00:00 8.6 0 Calma 7 Este 0 893.7 -0.7 85
2019-04-15 02:00:00 9.5 2 Nordeste 4 Nordeste 0 894.1 -0.4 83
2019-04-15 01:00:00 10.4 0 Calma 5 Norte 0 894.4 -0.1 79
2019-04-15 00:00:00 11.6 0 Calma 4 Oeste 0 894.4 0.5 74
2019-04-14 23:00:00 12.9 4 Nordeste 8 Este 0 894.5 1 69
2019-04-14 22:00:00 14.5 5 Este 15 Nordeste 0 894.5 1.3 63
2019-04-14 21:00:00 16.4 4 Este 11 Este 0 893.9 0.7 54
2019-04-14 20:00:00 17.5 8 Este 19 Oeste 0 893.5 0.1 50
2019-04-14 19:00:00 18.6 10 Oeste 26 Oeste 0 893.2 -0.5 49
2019-04-14 18:00:00 18.8 14 Oeste 28 Oeste 0 893.2 -0.7 49
2019-04-14 17:00:00 19.7 15 Oeste 36 Oeste 0 893.4 -0.4 46
2019-04-14 16:00:00 19.3 21 Oeste 34 Oeste 0 893.7 -0.2 47
2019-04-14 15:00:00 18.6 19 Oeste 35 Oeste 0 893.9 -0.2 50
2019-04-14 14:00:00 18.2 18 Oeste 33 Sudoeste 0 893.8 -0.4 51
2019-04-14 13:00:00 17.8 17 Oeste 33 Oeste 0 893.9 -0.1 54
2019-04-14 12:00:00 16.2 16 Sudoeste 28 Oeste 0 894.1 0.1 58
2019-04-14 11:00:00 15 6 Sudoeste 21 Oeste 0 894.2 0 57
2019-04-14 10:00:00 11.6 11 Oeste 17 Oeste 0 894 0.2 67
2019-04-14 09:00:00 9.9 5 Norte 11 Noroeste 0 894 0.3 70
2019-04-14 08:00:00 8.8 4 Noroeste 15 Sudoeste 0 894.2 0.2 67
2019-04-14 07:00:00 8.8 5 Oeste 19 Oeste 0 893.8 -0.4 60
2019-04-14 06:00:00 8.4 10 Sudoeste 19 Sudoeste 0 893.7 -0.8 55
2019-04-14 05:00:00 8.3 6 Sudoeste 13 Sudoeste 0 894 -0.7 56
2019-04-14 04:00:00 7.2 4 Norte 10 Oeste 0 894.2 -0.9 59
2019-04-14 03:00:00 7.2 5 Oeste 12 Oeste 0 894.5 -0.7 53
2019-04-14 02:00:00 7.8 0 Calma 4 Noroeste 0 894.7 -0.7 48
2019-04-14 01:00:00 8.1 3 Norte 4 Norte 0 895.1 -0.2 45
2019-04-14 00:00:00 9.4 3 Norte 7 Noroeste 0 895.2 0.7 41
2019-04-13 23:00:00 10.5 4 Norte 10 Noroeste 0 895.4 1.4 38
2019-04-13 22:00:00 11.9 3 Noroeste 8 Noroeste 0 895.3 1.6 31
2019-04-13 21:00:00 14.5 4 Norte 22 Oeste 0 894.5 0.7 25
2019-04-13 20:00:00 17 17 Oeste 30 Oeste 0 894 -0.1 18
2019-04-13 19:00:00 18.3 15 Oeste 27 Oeste 0 893.7 -0.8 16
2019-04-13 18:00:00 19.1 14 Oeste 27 Oeste 0 893.8 -1.1 15
2019-04-13 17:00:00 19.1 11 Sudoeste 27 Sudoeste 0 894.1 -1.1 11
2019-04-13 16:00:00 18.9 9 Sur 30 Sur 0 894.5 -0.7 15
2019-04-13 15:00:00 17.9 6 Nordeste 24 Oeste 0 894.9 -0.7 12
2019-04-13 14:00:00 17.5 7 Oeste 17 Oeste 0 895.2 -0.6 12
2019-04-13 13:00:00 16.7 6 Noroeste 16 Nordeste 0 895.2 -0.3 6
2019-04-13 12:00:00 15.5 4 Nordeste 13 Nordeste 0 895.6 0.3 9
2019-04-13 11:00:00 13.1 4 Norte 15 Norte 0 895.8 0.7 13
2019-04-13 10:00:00 8.9 6 Sur 8 Sur 0 895.5 0.7 25
2019-04-13 09:00:00 3.8 3 Norte 8 Norte 0 895.3 0.9 22
2019-04-13 08:00:00 1.1 3 Noroeste 9 Norte 0 895.1 0.8 34
2019-04-13 07:00:00 1.9 5 Norte 10 Noroeste 0 894.8 0.3 28
2019-04-13 06:00:00 2.3 4 Noroeste 9 Oeste 0 894.4 -0.5 28
2019-04-13 05:00:00 1.6 5 Noroeste 10 Noroeste 0 894.3 -1 35
2019-04-13 04:00:00 3.3 4 Este 12 Noroeste 0 894.5 -0.7 37
2019-04-13 03:00:00 2.2 5 Norte 12 Noroeste 0 894.9 -0.3 40
2019-04-13 02:00:00 3.7 3 Noroeste 11 Norte 0 895.3 0.2 44
2019-04-13 01:00:00 4.5 4 Norte 8 Norte 0 895.2 0.6 47
2019-04-13 00:00:00 7.2 6 Norte 20 Norte 0 895.2 1.1 36
2019-04-12 23:00:00 6.9 8 Norte 14 Norte 0 895.1 1.3 39
2019-04-12 22:00:00 7.5 5 Nordeste 21 Norte 0 894.6 1 45
2019-04-12 21:00:00 9.2 9 Norte 27 Norte 0 894.1 0.7 44
2019-04-12 20:00:00 11.9 14 Nordeste 28 Norte 0 893.8 0.3 34
2019-04-12 19:00:00 13.8 14 Norte 24 Nordeste 0 893.6 -0.5 24
2019-04-12 18:00:00 14.6 13 Nordeste 27 Nordeste 0 893.4 -1.1 23
2019-04-12 17:00:00 15 13 Norte 27 Nordeste 0 893.5 -0.8 25
2019-04-12 16:00:00 14.9 12 Nordeste 26 Nordeste 0 894.1 -0.6 24
2019-04-12 15:00:00 13.7 10 Nordeste 25 Nordeste 0 894.5 -0.6 25
2019-04-12 14:00:00 12.9 12 Norte 25 Este 0 894.3 -0.8 31
2019-04-12 13:00:00 11.9 11 Norte 22 Norte 0 894.7 -0.2 29
2019-04-12 12:00:00 11 10 Norte 21 Nordeste 0 895.1 0.2 34
2019-04-12 11:00:00 9.8 6 Norte 12 Noroeste 0 895.1 0.4 42
2019-04-12 10:00:00 7.4 5 Norte 19 Noroeste 0 894.9 0.3 49
2019-04-12 09:00:00 4.5 5 Norte 17 Norte 0 894.9 0.3 65
2019-04-12 08:00:00 2.9 6 Norte 15 Noroeste 0 894.7 0.1 73
2019-04-12 07:00:00 3 5 Norte 21 Norte 0 894.6 -0.3 75
2019-04-12 06:00:00 2.9 5 Norte 23 Norte 0 894.6 -0.6 78
2019-04-12 05:00:00 2.8 6 Norte 19 Nordeste 0 894.6 -0.9 78
2019-04-12 04:00:00 3 5 Norte 14 Norte 0 894.9 -0.7 77
2019-04-12 03:00:00 3.6 5 Norte 19 Nordeste 0 895.2 -0.8 72
2019-04-12 02:00:00 4.1 6 Norte 21 Noroeste 0 895.5 -0.3 69
2019-04-12 01:00:00 4.1 5 Norte 25 Norte 0 895.6 0.1 71
2019-04-12 00:00:00 4.9 5 Norte 19 Norte 0 896 0.8 74
2019-04-11 23:00:00 5 9 Norte 25 Norte 0 895.8 1.1 78
2019-04-11 22:00:00 5.3 8 Norte 29 Nordeste 0 895.5 1 74
2019-04-11 21:00:00 5.9 11 Norte 31 Nordeste 0 895.2 1 71
2019-04-11 20:00:00 7.3 15 Norte 27 Nordeste 0 894.7 0.8 65
2019-04-11 19:00:00 9.2 17 Norte 35 Norte 0 894.5 0.3 56
2019-04-11 18:00:00 8.9 13 Norte 32 Nordeste 0 894.2 0.1 57
2019-04-11 17:00:00 10.5 15 Norte 32 Norte 0 893.9 -0.5 49
2019-04-11 16:00:00 10.2 17 Norte 39 Nordeste 0 894.2 -0.5 49
2019-04-11 15:00:00 11.2 13 Norte 39 Nordeste 0 894.1 -0.7 46
2019-04-11 14:00:00 10.7 11 Norte 35 Nordeste 0 894.4 -0.2 48
2019-04-11 13:00:00 9.3 10 Norte 30 Norte 0 894.7 0.4 53
2019-04-11 12:00:00 9.7 8 Norte 22 Norte 0 894.8 0.6 47
2019-04-11 11:00:00 9.1 10 Norte 28 Nordeste 0 894.6 0.6 50
2019-04-11 10:00:00 7.1 8 Norte 21 Nordeste 0 894.3 0.8 54
2019-04-11 09:00:00 3.7 6 Norte 21 Norte 0 894.2 0.6 73
2019-04-11 08:00:00 1.6 3 Norte 8 Norte 0 894 0.4 87
2019-04-11 07:00:00 2.1 4 Norte 10 Noroeste 0 893.5 0.2 86
2019-04-11 06:00:00 2.2 4 Norte 16 Norte 0 893.6 0.1 83
2019-04-11 05:00:00 3.4 11 Norte 28 Norte 0 893.6 -0.3 79
2019-04-11 04:00:00 3 8 Norte 19 Norte 0 893.3 -0.4 81
2019-04-11 03:00:00 3.5 8 Norte 30 Norte 0 893.5 0.1 81
2019-04-11 02:00:00 3.9 14 Norte 28 Nordeste 0 893.9 0.5 79
2019-04-11 01:00:00 4.2 9 Norte 22 Norte 0 893.7 0.6 79
2019-04-11 00:00:00 4.4 7 Norte 24 Nordeste 0 893.4 1.3 79
2019-04-10 23:00:00 5.3 9 Nordeste 17 Nordeste 0 893.4 2.1 76
2019-04-10 22:00:00 5.2 8 Nordeste 21 Nordeste 0 893.1 2.5 71
2019-04-10 21:00:00 6.3 9 Norte 26 Norte 0 892.1 1.9 69
2019-04-10 20:00:00 8.2 8 Norte 23 Norte 0 891.3 1.5 60
2019-04-10 19:00:00 9 10 Norte 32 Norte 0 890.6 1.1 57
2019-04-10 18:00:00 9.2 15 Norte 34 Nordeste 0 890.2 0.4 59
2019-04-10 17:00:00 10.3 13 Norte 30 Nordeste 0 889.8 0.1 47
2019-04-10 16:00:00 10.7 10 Norte 28 Nordeste 0 889.5 -0.3 46
2019-04-10 15:00:00 8.9 8 Norte 19 Nordeste 0 889.8 -0.2 52
2019-04-10 14:00:00 8.5 8 Noroeste 19 Oeste 0 889.7 -0.2 63
2019-04-10 13:00:00 8.7 6 Noroeste 20 Oeste 0 889.8 0.4 61
2019-04-10 12:00:00 8.3 8 Noroeste 27 Oeste 0 890 0.8 67
2019-04-10 11:00:00 6.4 10 Noroeste 24 Oeste 0 889.9 1.2 76
2019-04-10 10:00:00 5.5 11 Noroeste 30 Oeste 0 889.4 1.1 81
2019-04-10 09:00:00 3.6 12 Noroeste 22 Oeste 0 889.2 0.7 88
2019-04-10 08:00:00 2.8 9 Oeste 18 Oeste 0 888.7 0.2 89
2019-04-10 07:00:00 2.8 8 Oeste 17 Oeste 0 888.3 -0.3 93
2019-04-10 06:00:00 3 9 Oeste 18 Oeste 0 888.5 -0.3 93
2019-04-10 05:00:00 2 4 Noroeste 11 Oeste 0 888.5 -0.6 94
2019-04-10 04:00:00 2.2 0 Calma 12 Oeste 0 888.6 -0.7 93
2019-04-10 03:00:00 2.6 3 Oeste 13 Oeste 0 888.8 -0.3 93
2019-04-10 02:00:00 3.2 9 Oeste 15 Oeste 0.4 889.1 -0.2 92
2019-04-10 01:00:00 3.4 9 Norte 22 Noroeste 0.6 889.3 0.8 90
2019-04-10 00:00:00 3.5 6 Norte 20 Nordeste 1.2 889.1 1.2 90
2019-04-09 23:00:00 3.6 9 Noroeste 29 Noroeste 2.4 889.3 1.8 88
2019-04-09 22:00:00 5.1 6 Noroeste 36 Oeste 0 888.5 1.3 82
2019-04-09 21:00:00 5.9 11 Noroeste 25 Noroeste 0 887.9 0.9 77
2019-04-09 20:00:00 6.2 10 Noroeste 31 Noroeste 0 887.5 0.3 76
2019-04-09 19:00:00 6 18 Noroeste 38 Noroeste 0 887.2 0.1 76
2019-04-09 18:00:00 6.7 16 Oeste 32 Oeste 0 887 -0.6 76
2019-04-09 17:00:00 6.6 13 Oeste 39 Oeste 0.2 887.2 -0.5 77
2019-04-09 16:00:00 8.9 17 Oeste 31 Sudoeste 0 887.1 -1 66
2019-04-09 15:00:00 6.6 14 Oeste 33 Noroeste 0.2 887.6 -0.7 80
2019-04-09 14:00:00 7.5 15 Oeste 35 Oeste 0 887.7 -0.9 72
2019-04-09 13:00:00 7.3 16 Oeste 41 Oeste 0 888.1 -0.7 68
2019-04-09 12:00:00 8.5 16 Oeste 39 Oeste 0 888.3 -0.5 62
2019-04-09 11:00:00 6.5 16 Oeste 28 Sudoeste 0 888.6 0 72
2019-04-09 10:00:00 4.7 14 Oeste 30 Oeste 0 888.8 0.3 83
2019-04-09 09:00:00 4.8 15 Oeste 30 Oeste 0 888.8 0.2 83
2019-04-09 08:00:00 4.2 8 Oeste 21 Oeste 0 888.6 -0.1 86
2019-04-09 07:00:00 4.4 12 Oeste 22 Oeste 0 888.5 -0.6 83
2019-04-09 06:00:00 4.4 11 Oeste 22 Oeste 0 888.6 -0.6 86
2019-04-09 05:00:00 4.3 12 Oeste 19 Oeste 0 888.7 -0.5 87
2019-04-09 04:00:00 4.7 10 Oeste 26 Oeste 0 889.1 0 82
2019-04-09 03:00:00 4.7 11 Oeste 19 Oeste 0 889.2 0.5 84
2019-04-09 02:00:00 5.4 12 Oeste 20 Oeste 0 889.2 0.3 76
2019-04-09 01:00:00 5.8 10 Oeste 19 Oeste 0 889.1 0.7 71
2019-04-09 00:00:00 5.8 6 Sudoeste 9 Sudoeste 0 888.7 0.6 76
2019-04-08 23:00:00 6.9 5 Oeste 10 Oeste 0 888.9 0.8 69
2019-04-08 22:00:00 7.4 6 Oeste 11 Oeste 0 888.4 0.3 65
2019-04-08 21:00:00 8.2 6 Sudoeste 32 Noroeste 0 888.1 0 58
2019-04-08 20:00:00 10.2 13 Oeste 34 Oeste 0 888.1 -0.3 54
2019-04-08 19:00:00 11.8 14 Oeste 30 Oeste 0 888.1 -0.7 42
2019-04-08 18:00:00 13.5 17 Oeste 35 Oeste 0 888.1 -0.9 37
2019-04-08 17:00:00 13.1 21 Oeste 37 Noroeste 0 888.4 -0.3 42
2019-04-08 16:00:00 10.5 17 Oeste 44 Oeste 0 888.8 -0.1 57
2019-04-08 15:00:00 11.4 12 Noroeste 44 Oeste 0 889 0.2 59
2019-04-08 14:00:00 12 17 Sudoeste 34 Oeste 0 888.7 0 65
2019-04-08 13:00:00 10.5 18 Oeste 33 Oeste 0 888.9 0.4 67
2019-04-08 12:00:00 9.4 16 Oeste 28 Noroeste 0.2 888.8 0.4 77
2019-04-08 11:00:00 7.3 13 Oeste 24 Oeste 0.2 888.7 0.6 94
2019-04-08 10:00:00 5.8 9 Sudoeste 22 Sudoeste 0.2 888.5 0.6 97
2019-04-08 09:00:00 5.2 10 Sur 17 Sudoeste 0.2 888.4 0.5 96
2019-04-08 08:00:00 5.1 4 Sudoeste 13 Oeste 0.4 888.1 0 98
2019-04-08 07:00:00 4.4 3 Este 12 Oeste 0.2 887.9 -0.3 96
2019-04-08 06:00:00 4.5 5 Sudoeste 11 Sudoeste 0.4 887.9 -0.5 97
2019-04-08 05:00:00 4.1 3 Noroeste 15 Oeste 0 888.1 -0.7 95
2019-04-08 04:00:00 4 8 Oeste 17 Oeste 0.4 888.2 -1.1 96
2019-04-08 03:00:00 3.8 7 Sudoeste 17 Sudoeste 0.4 888.4 -1.2 95
2019-04-08 02:00:00 3.8 9 Sur 14 Sur 0.2 888.8 -0.9 92
2019-04-08 01:00:00 4.2 5 Sudoeste 14 Oeste 0 889.3 -0.2 89
2019-04-08 00:00:00 4.6 9 Oeste 20 Oeste 0 889.6 0.8 85
2019-04-07 23:00:00 5.2 12 Oeste 27 Oeste 0 889.7 1.1 78
2019-04-07 22:00:00 6.6 13 Oeste 30 Oeste 0 889.5 1.2 60
2019-04-07 21:00:00 7.5 10 Oeste 20 Sudoeste 0 888.8 0.6 52
2019-04-07 20:00:00 8 10 Oeste 22 Oeste 0 888.6 0.5 51
2019-04-07 19:00:00 8.6 10 Oeste 27 Oeste 0 888.3 0.4 50
2019-04-07 18:00:00 8.9 13 Oeste 27 Noroeste 0 888.2 0.3 47
2019-04-07 17:00:00 9.4 13 Oeste 30 Oeste 0 888.1 0.6 48
2019-04-07 16:00:00 8.6 18 Oeste 34 Oeste 0 887.9 0.8 52
2019-04-07 15:00:00 8.1 21 Oeste 36 Oeste 0 887.9 1.2 54
2019-04-07 14:00:00 7.2 20 Oeste 35 Oeste 0 887.5 1.6 59
2019-04-07 13:00:00 7.1 14 Oeste 31 Oeste 0 887.1 1.9 62
2019-04-07 12:00:00 4.7 16 Oeste 38 Oeste 0 886.7 2.4 71
2019-04-07 11:00:00 3.7 16 Noroeste 42 Oeste 0 885.9 2.4 73
2019-04-07 10:00:00 3.4 17 Noroeste 35 Oeste 0 885.2 2.3 76
2019-04-07 09:00:00 1.6 16 Oeste 33 Oeste 0 884.3 2.3 87
2019-04-07 08:00:00 1.5 14 Oeste 27 Oeste 0 883.5 1.8 87
2019-04-07 07:00:00 1.3 9 Oeste 24 Noroeste 0 882.9 1.4 87
2019-04-07 06:00:00 1.3 14 Oeste 35 Oeste 0 882 0.8 87
2019-04-07 05:00:00 1.6 20 Oeste 34 Oeste 0 881.7 0.8 86
2019-04-07 04:00:00 1.8 17 Oeste 30 Oeste 0 881.5 0.7 88
2019-04-07 03:00:00 2 11 Oeste 32 Oeste 0 881.2 1 91
2019-04-07 02:00:00 1.8 12 Oeste 28 Sudoeste 0 880.9 0.8 92
2019-04-07 01:00:00 1.9 15 Oeste 28 Oeste 0 880.8 1.1 92
2019-04-07 00:00:00 1.8 15 Oeste 30 Oeste 0.2 880.2 1.3 94
2019-04-06 23:00:00 1.7 6 Noroeste 26 Oeste 0.6 880.1 1.7 94
2019-04-06 22:00:00 1.9 9 Oeste 27 Noroeste 1 879.7 1.7 92
2019-04-06 21:00:00 3.1 13 Oeste 23 Sudoeste 0 878.9 0.9 91
2019-04-06 20:00:00 3.1 9 Sudoeste 22 Oeste 0.4 878.4 0.8 91
2019-04-06 19:00:00 3.6 9 Noroeste 31 Oeste 0.2 878 0.3 89
2019-04-06 18:00:00 3.1 14 Oeste 43 Oeste 1.4 878 0 89
2019-04-06 17:00:00 3.6 13 Oeste 35 Oeste 0.6 877.6 -0.8 84
2019-04-06 16:00:00 3.7 11 Sudoeste 31 Oeste 0.4 877.7 -0.8 91
2019-04-06 15:00:00 4.5 18 Sudoeste 38 Oeste 0.4 878 -0.7 80
2019-04-06 14:00:00 1.9 19 Sudoeste 35 Sudoeste 1 878.4 0.2 92
2019-04-06 13:00:00 2.3 8 Oeste 25 Oeste 1 878.5 0.3 97
2019-04-06 12:00:00 2.5 14 Sudoeste 39 Oeste 0 878.7 0.6 88
2019-04-06 11:00:00 2.1 18 Oeste 38 Oeste 0 878.2 0.4 89
2019-04-06 10:00:00 2.2 18 Oeste 31 Oeste 0 878.2 0.8 85
2019-04-06 09:00:00 1.1 18 Oeste 35 Oeste 0 878.1 0.9 90
2019-04-06 08:00:00 1 17 Oeste 32 Sudoeste 0 877.8 0.4 93
2019-04-06 07:00:00 0.8 14 Oeste 24 Oeste 0.2 877.4 -0.2 95
2019-04-06 06:00:00 0.8 14 Oeste 22 Oeste 0 877.2 -0.6 95
2019-04-06 05:00:00 0.9 12 Oeste 23 Oeste 0.6 877.4 -0.3 95
2019-04-06 04:00:00 1.6 14 Oeste 24 Oeste 0 877.6 0.2 92
2019-04-06 03:00:00 1.6 16 Oeste 29 Noroeste 0 877.8 0.5 91
2019-04-06 02:00:00 1.5 15 Oeste 27 Oeste 0 877.7 0.5 90
2019-04-06 01:00:00 0.6 9 Oeste 21 Oeste 0 877.4 1 93
2019-04-06 00:00:00 1.2 13 Oeste 22 Oeste 0 877.3 1.2 86
2019-04-05 23:00:00 1.6 11 Oeste 17 Oeste 0 877.2 1.6 90
2019-04-05 22:00:00 2.1 9 Oeste 15 Oeste 0 876.4 0.7 89
2019-04-05 21:00:00 2.7 11 Oeste 22 Oeste 0 876.1 0.5 86
2019-04-05 20:00:00 2.8 8 Noroeste 17 Norte 0 875.6 -0.1 88
2019-04-05 19:00:00 1.7 4 Oeste 14 Oeste 1 875.7 -0.1 93
2019-04-05 18:00:00 2.3 4 Noroeste 21 Sudoeste 1.2 875.6 -0.5 93
2019-04-05 17:00:00 3.4 15 Oeste 33 Sudoeste 0 875.7 -0.5 87
2019-04-05 16:00:00 6.2 17 Sur 33 Sudoeste 0 875.8 -0.8 70
2019-04-05 15:00:00 5.9 15 Sur 25 Sur 0 876.1 -0.8 72
2019-04-05 14:00:00 5.7 16 Sur 27 Sur 0 876.2 -0.4 76
2019-04-05 13:00:00 4.9 13 Sur 25 Sur 0 876.6 0.2 80
2019-04-05 12:00:00 4.4 13 Sur 32 Sur 0 876.9 0.3 85
2019-04-05 11:00:00 4.3 13 Sur 29 Sudoeste 0 876.6 0.3 87
2019-04-05 10:00:00 3.5 13 Sudoeste 22 Sur 0 876.4 0.3 89
2019-04-05 09:00:00 2.5 12 Sudoeste 25 Sur 0.4 876.6 0.5 92
2019-04-05 08:00:00 2.3 10 Sur 26 Sudoeste 0 876.3 0.3 92
2019-04-05 07:00:00 2.8 13 Sudoeste 33 Sudoeste 0 876.1 -0.2 88
2019-04-05 06:00:00 3.5 18 Sudoeste 35 Sudoeste 0 876.1 -0.7 79
2019-04-05 05:00:00 4.5 15 Sur 32 Sur 0 876 -0.9 63
2019-04-05 04:00:00 4.3 8 Sur 13 Sur 0 876.3 -1.2 61
2019-04-05 03:00:00 4.1 4 Sudoeste 9 Sudoeste 0 876.8 -1.1 65
2019-04-05 02:00:00 4.1 2 Norte 7 Oeste 0 876.9 -1.5 65
2019-04-05 01:00:00 4.2 4 Noroeste 11 Nordeste 0 877.5 -0.9 64
2019-04-05 00:00:00 5.3 6 Norte 22 Noroeste 0 877.9 -0.3 56
2019-04-04 23:00:00 6.7 3 Sudoeste 13 Sur 0 878.4 0.2 40
2019-04-04 22:00:00 7.4 8 Sur 21 Oeste 0 878.4 0.3 37
2019-04-04 21:00:00 8.1 10 Oeste 20 Sudoeste 0 878.2 -0.1 33
2019-04-04 20:00:00 8.9 13 Oeste 30 Oeste 0 878.2 -0.7 32
2019-04-04 19:00:00 10 13 Oeste 30 Oeste 0 878.1 -1.6 29
2019-04-04 18:00:00 10.8 15 Sudoeste 32 Sudoeste 0 878.3 -2.1 28
2019-04-04 17:00:00 10.4 16 Oeste 35 Oeste 0 878.9 -2 30
2019-04-04 16:00:00 9.5 15 Sudoeste 31 Sudoeste 0 879.7 -- 32
2019-04-04 15:00:00 8.5 14 Oeste 26 Oeste 0 880.4 -1.3 33
2019-04-04 14:00:00 7.5 14 Sudoeste -- -- -- 880.9 -0.6 41
2019-04-04 13:00:00 -- -- -- -- -- -- -- -- --
2019-04-04 12:00:00 4.2 17 Oeste 30 Oeste 0 881.7 0.8 60
2019-04-04 11:00:00 2.9 14 Oeste 22 Oeste 0 881.5 1.1 67
2019-04-04 10:00:00 0.8 10 Oeste 21 Sudoeste 0 881.3 1.3 72
2019-04-04 09:00:00 -1.8 8 Sudoeste 14 Oeste 0 880.9 0.9 78
2019-04-04 08:00:00 -2.7 6 Sudoeste 16 Oeste 0 880.4 0.4 80
2019-04-04 07:00:00 -2.3 7 Oeste 17 Oeste 0 880 -0.4 79
2019-04-04 06:00:00 -2.1 4 Noroeste 21 Oeste 0 880 -1 77
2019-04-04 05:00:00 -1.5 7 Noroeste 19 Oeste 0 880 -1.5 74
2019-04-04 04:00:00 -1.9 5 Oeste 14 Oeste 0 880.4 -1.5 79
2019-04-04 03:00:00 -1.5 6 Oeste 12 Sudoeste 0 881 -1.4 83
2019-04-04 02:00:00 -1.2 4 Sudoeste 9 Sudoeste 0 881.5 -1 82
2019-04-04 01:00:00 -0.5 4 Sudoeste 7 Sudoeste 0 881.9 -0.4 86
2019-04-04 00:00:00 -0.2 5 Norte 8 Norte 0 882.4 0.4 83
2019-04-03 23:00:00 0.2 0 Calma 9 Norte 0 882.5 0.8 86
2019-04-03 22:00:00 1.4 4 Norte 11 Oeste 0 882.3 0.6 81
2019-04-03 21:00:00 2.4 4 Norte 11 Norte 0 882 0.5 80
2019-04-03 20:00:00 2.8 3 Norte 22 Noroeste 0.4 881.7 0.5 81
2019-04-03 19:00:00 5 12 Norte 36 Nordeste 0 881.7 0.4 63
2019-04-03 18:00:00 6.8 6 Noroeste 32 Noroeste 0 881.5 -0.5 59
2019-04-03 17:00:00 9.2 8 Norte 32 Oeste 0 881.2 -1.6 50
2019-04-03 16:00:00 9.1 15 Oeste 38 Oeste 0 881.3 -2.1 40
2019-04-03 15:00:00 8.4 15 Oeste 32 Oeste 0 882 -1.9 47
2019-04-03 14:00:00 6.8 18 Oeste 30 Oeste 0 882.8 -1.5 59
2019-04-03 13:00:00 5.4 10 Oeste 23 Oeste 0 883.4 -1.2 73
2019-04-03 12:00:00 5.9 9 Oeste 26 Oeste 0 883.9 -1 75
2019-04-03 11:00:00 5.4 13 Oeste 30 Oeste 0 884.3 -0.7 80
2019-04-03 10:00:00 5.5 9 Oeste 19 Oeste 0 884.6 -0.7 91
2019-04-03 09:00:00 3.5 6 Oeste 11 Noroeste 0 884.9 -0.6 96
2019-04-03 08:00:00 3.1 5 Oeste 18 Oeste 0 885 -1.4 95
2019-04-03 07:00:00 3.1 7 Noroeste 21 Noroeste 0 885.3 -1.6 97
2019-04-03 06:00:00 3.4 7 Sudoeste 18 Oeste 0 885.5 -2 93
2019-04-03 05:00:00 3.6 12 Sudoeste 17 Oeste 0 886.4 -1.7 91
2019-04-03 04:00:00 4.4 3 Sudoeste 9 Sudoeste 0 886.9 -1.8 94
2019-04-03 03:00:00 5.4 2 Norte 8 Nordeste 0 887.5 -2 95
2019-04-03 02:00:00 5.9 0 Calma 9 Este 0 888.1 -1.4 94
2019-04-03 01:00:00 5.6 4 Este 10 Nordeste 0 888.7 -1.1 95
2019-04-03 00:00:00 5.6 4 Nordeste 14 Nordeste 0 889.5 -0.1 94
2019-04-02 23:00:00 6.1 0 Calma 4 Sudoeste 0 889.5 -0.5 93
2019-04-02 22:00:00 6.6 0 Calma 3 Nordeste 0 889.8 -0.2 92
2019-04-02 21:00:00 7.2 2 Norte 10 Este 0.8 889.6 -0.4 89
2019-04-02 20:00:00 8.3 4 Norte 8 Norte 1.2 890 -0.7 86
2019-04-02 19:00:00 8.3 3 Norte 12 Sur 0 890 -0.6 85
2019-04-02 18:00:00 8.3 8 Sudeste 21 Norte 2.6 890 -1.2 91
2019-04-02 17:00:00 10.7 7 Este 25 Sudeste 0 890.7 -1.2 67
2019-04-02 16:00:00 10.1 6 Este 16 Norte 1.6 890.6 -1.5 78
2019-04-02 15:00:00 9.2 5 Nordeste 22 Nordeste 2.6 891.2 -1.3 81
2019-04-02 14:00:00 11.5 7 Norte 16 Norte 0.6 891.9 -0.8 70
2019-04-02 13:00:00 12.7 7 Sudeste 13 Sudeste 0 892.1 -0.4 68
2019-04-02 12:00:00 10.4 4 Este 13 Este 0 892.5 0.3 82
2019-04-02 11:00:00 7 4 Sudoeste 8 Oeste 0 892.7 0.8 92
2019-04-02 10:00:00 5.1 4 Este 8 Nordeste 0 892.5 0.7 93
2019-04-02 09:00:00 4.3 2 Norte 6 Oeste 0 892.2 0.4 95
2019-04-02 08:00:00 3.6 2 Sudeste 9 Norte 0 891.9 0 97
2019-04-02 07:00:00 2.6 0 Calma 5 Sudeste 0 891.8 -0.4 96
2019-04-02 06:00:00 3.1 0 Calma 4 Norte 0 891.8 -0.5 95
2019-04-02 05:00:00 3.8 0 Calma 4 Norte 0 891.9 -0.8 96
2019-04-02 04:00:00 4.3 2 Norte 7 Norte 0 892.2 -0.5 96
2019-04-02 03:00:00 5 0 Calma 4 Norte 0 892.3 -0.4 94
2019-04-02 02:00:00 5.8 3 Sur 6 Norte 0 892.7 0.2 95
2019-04-02 01:00:00 6 3 Norte 5 Nordeste 0 892.7 0.6 94
2019-04-02 00:00:00 6.4 0 Calma 9 Este 0 892.7 1.2 91
2019-04-01 23:00:00 7.5 4 Nordeste 12 Este 0 892.5 1.7 91
2019-04-01 22:00:00 8.1 7 Este 14 Este 0 892.1 1.7 89
2019-04-01 21:00:00 8.7 5 Este 18 Este 0 891.5 1 86
2019-04-01 20:00:00 10.2 7 Este 15 Este 0 890.8 0.1 81
2019-04-01 19:00:00 10.4 6 Este 11 Norte 0 890.4 -0.2 79
2019-04-01 18:00:00 9.8 4 Oeste 18 Oeste 2.2 890.5 -0.4 79
2019-04-01 17:00:00 11 11 Sudoeste 20 Sudoeste 0.2 890.7 -0.7 75
2019-04-01 16:00:00 12.6 9 Sudeste 15 Sudeste 0 890.6 -1.2 63
2019-04-01 15:00:00 12.9 5 Sudeste 16 Sur 0 890.9 -1 59
2019-04-01 14:00:00 11 6 Sur 13 Sur 0 891.4 -0.1 70
2019-04-01 13:00:00 9.1 6 Sudeste 12 Sudeste 0 891.8 0.8 80
2019-04-01 12:00:00 7.4 7 Sur 14 Sur 0 891.9 1 88
2019-04-01 11:00:00 6.4 6 Sudeste 13 Sudeste 4.8 891.5 1.1 93
2019-04-01 10:00:00 5.9 5 Sudeste 13 Sudeste 0 891 0.8 96
2019-04-01 09:00:00 5.5 6 Sudeste 12 Sudeste 0 890.9 0.6 95
2019-04-01 08:00:00 5.5 4 Sudeste 11 Sudeste 0 890.4 -0.2 96
2019-04-01 07:00:00 5.4 5 Sudeste 12 Sudeste 0 890.2 -0.5 94
2019-04-01 06:00:00 5.3 4 Este 10 Este 0 890.3 -0.7 94
2019-04-01 05:00:00 5.1 4 Este 8 Este 0 890.6 -0.7 94
2019-04-01 04:00:00 4.8 6 Nordeste 13 Nordeste 0 890.7 -1 93
2019-04-01 03:00:00 4.7 9 Nordeste 14 Nordeste 0 891 -0.9 93
2019-04-01 02:00:00 4.5 8 Nordeste 14 Nordeste 0 891.3 -0.8 94
2019-04-01 01:00:00 4.3 9 Nordeste 13 Nordeste 0 891.7 -0.1 95
2019-04-01 00:00:00 4.1 9 Nordeste 14 Nordeste 0 891.9 0.4 93
2019-03-31 23:00:00 4.4 6 Nordeste 13 Nordeste 0 892.1 0.9 91
2019-03-31 22:00:00 4.6 9 Nordeste 16 Nordeste 0.8 891.8 0.8 89
2019-03-31 21:00:00 5.6 10 Este 17 Este 1 891.5 0.5 87
2019-03-31 20:00:00 7 9 Este 16 Nordeste 0 891.2 0.1 81
2019-03-31 19:00:00 7.3 7 Nordeste 19 Nordeste 0 891 -0.1 83
2019-03-31 18:00:00 7.9 7 Nordeste 17 Este 0 891 -0.3 77
2019-03-31 17:00:00 8.4 8 Sudeste 27 Sudeste 0.2 891.1 -0.8 70
2019-03-31 16:00:00 11.3 13 Sudeste 28 Sudeste 0 891.1 -1 41
2019-03-31 15:00:00 13.2 11 Este 26 Este 0 891.3 -1.1 29
2019-03-31 14:00:00 13.1 12 Sudeste 26 Sudeste 0 891.9 -0.7 35
2019-03-31 13:00:00 13.3 9 Sudeste 22 Sudeste 0 892.1 -0.3 37
2019-03-31 12:00:00 12.2 6 Este 14 Norte 0 892.4 0 45
2019-03-31 11:00:00 8.1 7 Nordeste 13 Norte 0 892.6 0.5 57
2019-03-31 10:00:00 5.9 4 Este 8 Este 0 892.4 0.2 65
2019-03-31 09:00:00 2.6 4 Este 6 Este 0 892.4 -0.3 69
2019-03-31 08:00:00 2 0 Calma 6 Nordeste 0 892.1 -1.3 65
2019-03-31 07:00:00 2.2 2 Norte 12 Nordeste 0 892.2 -1.9 63
2019-03-31 06:00:00 1.3 2 Sudeste 8 Nordeste 0 892.7 -1.9 67
2019-03-31 05:00:00 2.3 5 Nordeste 13 Norte 0 893.4 -1.4 64
2019-03-31 03:00:00 3.8 3 Norte 8 Noroeste 0 894.6 -0.9 59
2019-03-31 01:00:00 4.7 4 Este 9 Nordeste 0 894.8 -0.7 56
2019-03-31 00:00:00 6.3 6 Nordeste 9 Nordeste 0 894.9 0 49
2019-03-30 23:00:00 6.8 4 Este 14 Este 0 895.5 0.9 45
2019-03-30 22:00:00 7.6 2 Sudeste 19 Este 0 895.5 1.7 42
2019-03-30 21:00:00 8.9 9 Este 20 Este 0 894.9 1.1 39
2019-03-30 20:00:00 10.7 7 Este 14 Este 0 894.6 0.6 36
2019-03-30 19:00:00 14 5 Sudeste 21 Este 0 893.8 -0.7 28
2019-03-30 18:00:00 15.4 10 Este 31 Este 0 893.8 -1.3 25
2019-03-30 17:00:00 16.2 9 Este 20 Sudeste 0 894 -1.8 24
2019-03-30 16:00:00 16.3 9 Este 23 Sur 0 894.5 -2 24
2019-03-30 15:00:00 16.4 7 Sudeste 22 Sur 0 895.1 -2 27
2019-03-30 14:00:00 15.4 9 Sudeste 23 Sur 0 895.8 -1.9 29
2019-03-30 13:00:00 14.5 11 Sur 22 Sur 0 896.5 -1.4 35
2019-03-30 12:00:00 13 9 Sur 15 Sur 0 897.1 -0.9 39
2019-03-30 11:00:00 11.4 7 Sur 14 Sur 0 897.7 -0.3 43
2019-03-30 10:00:00 8.8 3 Sudoeste 10 Nordeste 0 897.9 -0.2 49
2019-03-30 09:00:00 5.1 5 Nordeste 9 Este 0 898 0.1 66
2019-03-30 08:00:00 0.5 3 Este 7 Norte 0 898 0 85
2019-03-30 07:00:00 -0.2 0 Calma 5 Norte 0 898.1 -0.2 82
2019-03-30 06:00:00 0.2 2 Noroeste 5 Este 0 897.9 -0.6 81
2019-03-30 05:00:00 1 2 Sudeste 4 Este 0 898 -0.7 76
2019-03-30 04:00:00 2.6 3 Norte 4 Noroeste 0 898.3 -0.6 72
2019-03-30 03:00:00 3.3 0 Calma 5 Noroeste 0 898.5 -0.5 68
2019-03-30 02:00:00 4.5 0 Calma 8 Nordeste 0 898.7 -0.3 65
2019-03-30 01:00:00 5.9 3 Nordeste 14 Este 0 898.9 0.1 63
2019-03-30 00:00:00 6.9 7 Este 16 Este 0 899 0.5 61
2019-03-29 23:00:00 7.7 7 Norte 13 Este 0 899 1 60
2019-03-29 22:00:00 8.7 8 Este 24 Sudeste 0 898.8 1.1 58
2019-03-29 21:00:00 9.9 12 Sudeste 24 Sudeste 0 898.5 1.1 49
2019-03-29 20:00:00 11.3 10 Sudeste 27 Sudeste 0 898 0.4 40
2019-03-29 19:00:00 14.1 10 Sudeste 24 Sudeste 0 897.7 -0.3 31
2019-03-29 18:00:00 16.1 6 Sudeste 24 Sur 0 897.4 -1.3 25
2019-03-29 17:00:00 16.7 9 Sur 25 Sur 0 897.6 -1.9 26
2019-03-29 16:00:00 16.9 11 Sur 23 Sudeste 0 898 -1.9 28
2019-03-29 15:00:00 16.5 7 Sur 26 Sur 0 898.7 -1.7 27
2019-03-29 14:00:00 15.7 14 Sur 30 Sudeste 0 899.5 -1.4 29
2019-03-29 13:00:00 15.6 12 Sudeste 23 Sudeste 0 899.9 -1.2 31
2019-03-29 12:00:00 14.1 8 Sur 19 Sur 0 900.4 -0.7 36
2019-03-29 11:00:00 12.2 6 Sur 20 Sur 0 900.9 -0.3 39
2019-03-29 10:00:00 9.6 5 Sudeste 10 Este 0 901.1 0.1 47
2019-03-29 09:00:00 5.2 4 Este 8 Nordeste 0 901.1 0.2 70
2019-03-29 08:00:00 0.2 2 Sudeste 6 Sudeste 0 901.2 0.3 87
2019-03-29 07:00:00 -0.3 0 Calma 5 Noroeste 0 901 0 81
2019-03-29 06:00:00 0.3 0 Calma 7 Este 0 900.9 -0.2 82
2019-03-29 05:00:00 0.9 4 Este 7 Este 0 900.9 -0.4 80
2019-03-29 04:00:00 1 0 Calma 5 Nordeste 0 901 -0.4 77
2019-03-29 03:00:00 1.9 3 Este 6 Nordeste 0 901.1 0 73
2019-03-29 02:00:00 3.8 3 Norte 8 Nordeste 0 901.3 0 71
2019-03-29 01:00:00 4.6 0 Calma 6 Este 0 901.4 0.1 67
2019-03-29 00:00:00 5.7 4 Nordeste 13 Nordeste 0 901.1 0 64
2019-03-28 23:00:00 6.8 8 Nordeste 12 Nordeste 0 901.3 0.7 62
2019-03-28 22:00:00 7.1 4 Este 11 Nordeste 0 901.3 0.8 58
2019-03-28 21:00:00 8.4 5 Nordeste 17 Este 0 901.1 1 53
2019-03-28 20:00:00 10.8 9 Nordeste 24 Nordeste 0 900.6 0.4 44
2019-03-28 19:00:00 13.5 9 Nordeste 22 Nordeste 0 900.5 0.1 36
2019-03-28 18:00:00 15.8 14 Este 23 Nordeste 0 900.1 -0.8 30
2019-03-28 17:00:00 16.4 10 Nordeste 20 Este 0 900.2 -1.4 28
2019-03-28 16:00:00 17.8 5 Este 22 Nordeste 0 900.4 -1.7 29
2019-03-28 15:00:00 17.5 9 Este 19 Este 0 900.9 -1.6 29
2019-03-28 14:00:00 15.5 8 Nordeste 17 Nordeste 0 901.6 -1.3 30
2019-03-28 13:00:00 15.3 6 Sur 17 Sudeste 0 902.1 -0.7 34
2019-03-28 12:00:00 13.9 6 Sudeste 19 Sudeste 0 902.5 -0.4 35
2019-03-28 11:00:00 12.6 7 Sudeste 17 Este 0 902.9 0.2 37
2019-03-28 10:00:00 10.6 9 Este 19 Este 0 902.8 0.3 40
2019-03-28 09:00:00 7.6 8 Este 13 Este 0 902.9 0.6 50
2019-03-28 08:00:00 2.6 5 Este 9 Nordeste 0 902.7 0.5 68
2019-03-28 07:00:00 1.5 5 Este 10 Este 0 902.5 0.4 65
2019-03-28 06:00:00 2.4 5 Nordeste 12 Nordeste 0 902.3 0.4 62
2019-03-28 05:00:00 2.8 5 Nordeste 11 Nordeste 0 902.2 0.3 57
2019-03-28 04:00:00 3.3 6 Nordeste 11 Sudeste 0 902.1 0.2 54
2019-03-28 03:00:00 3.8 6 Este 23 Nordeste 0 901.9 0.2 54
2019-03-28 02:00:00 5.2 14 Nordeste 23 Nordeste 0 901.9 0.4 48
2019-03-28 01:00:00 4.7 8 Nordeste 20 Nordeste 0 901.9 0.2 47
2019-03-28 00:00:00 5.4 8 Norte 29 Nordeste 0 901.7 0.7 42
2019-03-27 23:00:00 6.6 18 Nordeste 29 Nordeste 0 901.5 1 36
2019-03-27 22:00:00 7.1 9 Nordeste 32 Norte 0 901.7 1.7 36
2019-03-27 21:00:00 8.2 12 Norte 25 Nordeste 0 901 1.5 36
2019-03-27 20:00:00 9.7 16 Nordeste 28 Nordeste 0 900.5 1.2 35
2019-03-27 19:00:00 12.2 14 Nordeste 33 Nordeste 0 900 0.5 26
2019-03-27 18:00:00 14 17 Nordeste 33 Nordeste 0 899.5 -0.1 23
2019-03-27 17:00:00 15.1 19 Nordeste 38 Nordeste 0 899.3 -0.5 18
2019-03-27 16:00:00 15.3 16 Nordeste 39 Nordeste 0 899.5 -0.7 18
2019-03-27 15:00:00 15.8 15 Nordeste 30 Este 0 899.6 -0.7 19
2019-03-27 14:00:00 16 14 Este 32 Nordeste 0 899.8 -0.5 18
2019-03-27 13:00:00 14.3 15 Nordeste 39 Nordeste 0 900.2 0.1 16
2019-03-27 12:00:00 13.4 20 Nordeste 34 Este 0 900.3 0.4 15
2019-03-27 11:00:00 12.1 17 Nordeste 31 Nordeste 0 900.3 0.3 17
2019-03-27 10:00:00 10.3 14 Nordeste 30 Nordeste 0 900.1 0.7 21
2019-03-27 09:00:00 7.4 11 Nordeste 17 Nordeste 0 899.9 0.7 27
2019-03-27 08:00:00 2.6 3 Nordeste 9 Este 0 900 1 42
2019-03-27 07:00:00 3.1 8 Nordeste 15 Este 0 899.4 0.6 39
2019-03-27 06:00:00 2.4 9 Nordeste 16 Nordeste 0 899.2 0.1 42
2019-03-27 05:00:00 3.9 11 Nordeste 18 Nordeste 0 899 -0.3 36
2019-03-27 04:00:00 2.8 4 Nordeste 15 Nordeste 0 898.8 -0.3 39
2019-03-27 03:00:00 3.5 7 Nordeste 16 Nordeste 0 899.1 -0.2 40
2019-03-27 02:00:00 3.5 5 Este 19 Norte 0 899.3 0.3 40
2019-03-27 01:00:00 4.7 12 Nordeste 24 Nordeste 0 899.1 0.2 35
2019-03-27 00:00:00 5 11 Nordeste 28 Nordeste 0 899.3 0.8 34